createdAt,value
2023-03-20T00:00:30.565Z,0.09
2023-03-20T00:01:31.336Z,0.09
2023-03-20T00:02:32.022Z,0.09
2023-03-20T00:03:32.838Z,0.09
2023-03-20T00:04:33.502Z,0.09
2023-03-20T00:05:34.468Z,0.09
2023-03-20T00:06:35.174Z,0.09
2023-03-20T00:06:44.289Z,0.09
2023-03-20T00:07:44.900Z,0.09
2023-03-20T00:08:45.513Z,0.09
2023-03-20T00:09:46.192Z,0.09
2023-03-20T00:10:46.953Z,0.09
2023-03-20T00:11:47.668Z,0.09
2023-03-20T00:12:48.331Z,0.09
2023-03-20T00:13:49.020Z,0.09
2023-03-20T00:14:49.740Z,0.09
2023-03-20T00:15:50.666Z,0.13
2023-03-20T00:16:51.596Z,0.09
2023-03-20T00:17:00.724Z,0.09
2023-03-20T00:18:01.091Z,0.09
2023-03-20T00:19:01.852Z,0.09
2023-03-20T00:20:02.465Z,0.13
2023-03-20T00:21:03.141Z,0.09
2023-03-20T00:22:03.906Z,0.09
2023-03-20T00:23:04.580Z,0.09
2023-03-20T00:24:05.338Z,0.09
2023-03-20T00:25:06.040Z,0.09
2023-03-20T00:26:06.822Z,0.09
2023-03-20T00:27:07.511Z,0.09
2023-03-20T00:27:16.167Z,0.09
2023-03-20T00:28:16.825Z,0.09
2023-03-20T00:29:17.508Z,0.09
2023-03-20T00:30:18.197Z,0.09
2023-03-20T00:31:19.252Z,0.09
2023-03-20T00:32:19.891Z,0.09
2023-03-20T00:33:20.577Z,0.09
2023-03-20T00:34:21.311Z,0.09
2023-03-20T00:35:22.061Z,0.09
2023-03-20T00:36:23.031Z,0.09
2023-03-20T00:37:23.870Z,0.09
2023-03-20T00:38:24.731Z,0.09
2023-03-20T00:38:33.256Z,0.09
2023-03-20T00:39:33.863Z,0.09
2023-03-20T00:40:34.539Z,0.09
2023-03-20T00:41:35.138Z,0.09
2023-03-20T00:42:36.044Z,0.09
2023-03-20T00:43:36.590Z,0.09
2023-03-20T00:44:38.408Z,0.09
2023-03-20T00:45:38.101Z,0.09
2023-03-20T00:46:38.728Z,0.09
2023-03-20T00:47:39.285Z,0.09
2023-03-20T00:48:39.966Z,0.09
2023-03-20T00:48:48.625Z,0.09
2023-03-20T00:49:49.230Z,0.09
2023-03-20T00:50:49.879Z,0.09
2023-03-20T00:51:50.565Z,0.09
2023-03-20T00:52:51.302Z,0.09
2023-03-20T00:53:52.079Z,0.09
2023-03-20T00:54:52.740Z,0.09
2023-03-20T00:55:53.521Z,0.09
2023-03-20T00:56:54.091Z,0.09
2023-03-20T00:57:54.767Z,0.09
2023-03-20T00:58:55.617Z,0.09
2023-03-20T00:59:04.273Z,0.09
2023-03-20T01:00:04.879Z,0.09
2023-03-20T01:01:05.537Z,0.09
2023-03-20T01:02:06.327Z,0.09
2023-03-20T01:03:07.051Z,0.09
2023-03-20T01:04:07.809Z,0.09
2023-03-20T01:05:08.436Z,0.09
2023-03-20T01:06:09.012Z,0.09
2023-03-20T01:07:09.621Z,0.09
2023-03-20T01:08:10.242Z,0.09
2023-03-20T01:09:10.961Z,0.09
2023-03-20T01:10:11.674Z,0.09
2023-03-20T01:11:12.495Z,0.09
2023-03-20T01:11:21.085Z,0.09
2023-03-20T01:12:21.786Z,0.09
2023-03-20T01:13:22.561Z,0.09
2023-03-20T01:14:24.230Z,0.09
2023-03-20T01:15:25.054Z,0.13
2023-03-20T01:16:24.736Z,0.13
2023-03-20T01:17:24.492Z,0.09
2023-03-20T01:18:25.430Z,0.09
2023-03-20T01:19:26.415Z,0.09
2023-03-20T01:20:26.955Z,0.09
2023-03-20T01:21:27.677Z,0.09
2023-03-20T01:22:28.390Z,0.09
2023-03-20T01:23:29.109Z,0.09
2023-03-20T01:23:41.716Z,0.09
2023-03-20T01:24:42.337Z,0.09
2023-03-20T01:25:43.055Z,0.09
2023-03-20T01:26:43.783Z,0.09
2023-03-20T01:27:44.659Z,0.09
2023-03-20T01:28:45.429Z,0.09
2023-03-20T01:29:46.096Z,0.09
2023-03-20T01:30:46.988Z,0.09
2023-03-20T01:31:47.686Z,0.09
2023-03-20T01:32:48.499Z,0.09
2023-03-20T01:33:49.062Z,0.09
2023-03-20T01:34:49.670Z,0.09
2023-03-20T01:34:58.290Z,0.09
2023-03-20T01:35:59.198Z,0.09
2023-03-20T01:36:59.819Z,0.09
2023-03-20T01:38:00.502Z,0.09
2023-03-20T01:39:01.349Z,0.09
2023-03-20T01:40:02.300Z,0.09
2023-03-20T01:41:02.876Z,0.09
2023-03-20T01:42:03.469Z,0.09
2023-03-20T01:43:04.160Z,0.09
2023-03-20T01:44:04.865Z,0.09
2023-03-20T01:45:05.663Z,0.09
2023-03-20T01:46:06.419Z,0.09
2023-03-20T01:46:15.030Z,0.09
2023-03-20T01:47:15.944Z,0.09
2023-03-20T01:48:16.685Z,0.09
2023-03-20T01:49:17.461Z,0.09
2023-03-20T01:50:18.203Z,0.09
2023-03-20T01:51:18.877Z,0.13
2023-03-20T01:52:20.568Z,0.09
2023-03-20T01:53:20.233Z,0.09
2023-03-20T01:54:20.922Z,0.09
2023-03-20T01:55:21.606Z,0.09
2023-03-20T01:56:22.587Z,0.09
2023-03-20T01:57:22.860Z,0.09
2023-03-20T01:58:23.710Z,0.09
2023-03-20T01:58:32.332Z,0.09
2023-03-20T01:59:32.967Z,0.09
2023-03-20T02:00:32.973Z,0.09
2023-03-20T02:01:33.705Z,0.09
2023-03-20T02:02:34.379Z,0.09
2023-03-20T02:03:35.009Z,0.09
2023-03-20T02:04:35.882Z,0.09
2023-03-20T02:05:36.677Z,0.09
2023-03-20T02:06:37.347Z,0.09
2023-03-20T02:07:38.122Z,0.09
2023-03-20T02:08:38.720Z,0.09
2023-03-20T02:08:54.625Z,0.09
2023-03-20T02:09:54.667Z,0.09
2023-03-20T02:10:55.321Z,0.09
2023-03-20T02:11:56.152Z,0.09
2023-03-20T02:12:56.828Z,0.09
2023-03-20T02:13:57.441Z,0.09
2023-03-20T02:14:58.222Z,0.09
2023-03-20T02:15:58.776Z,0.09
2023-03-20T02:16:59.689Z,0.09
2023-03-20T02:18:00.292Z,0.09
2023-03-20T02:19:00.997Z,0.09
2023-03-20T02:19:09.647Z,0.09
2023-03-20T02:20:09.876Z,0.09
2023-03-20T02:21:10.501Z,0.13
2023-03-20T02:22:11.264Z,0.09
2023-03-20T02:23:12.067Z,0.09
2023-03-20T02:24:12.719Z,0.09
2023-03-20T02:25:13.492Z,0.09
2023-03-20T02:26:14.260Z,0.09
2023-03-20T02:27:14.957Z,0.09
2023-03-20T02:28:15.559Z,0.13
2023-03-20T02:29:16.244Z,0.09
2023-03-20T02:29:24.900Z,0.13
2023-03-20T02:30:25.526Z,0.09
2023-03-20T02:31:26.208Z,0.09
2023-03-20T02:32:26.904Z,0.09
2023-03-20T02:33:27.546Z,0.09
2023-03-20T02:34:28.209Z,0.09
2023-03-20T02:35:29.002Z,0.09
2023-03-20T02:36:29.625Z,0.09
2023-03-20T02:37:30.245Z,0.09
2023-03-20T02:38:30.978Z,0.09
2023-03-20T02:39:31.619Z,0.09
2023-03-20T02:40:32.357Z,0.09
2023-03-20T02:41:32.638Z,0.09
2023-03-20T02:41:41.624Z,0.09
2023-03-20T02:42:42.526Z,0.09
2023-03-20T02:43:43.193Z,0.09
2023-03-20T02:44:43.839Z,0.09
2023-03-20T02:45:44.504Z,0.09
2023-03-20T02:46:45.220Z,0.09
2023-03-20T02:47:46.170Z,0.09
2023-03-20T02:48:46.993Z,0.09
2023-03-20T02:49:47.650Z,0.09
2023-03-20T02:50:47.809Z,0.09
2023-03-20T02:51:48.463Z,0.09
2023-03-20T02:52:49.200Z,0.09
2023-03-20T02:52:57.807Z,0.09
2023-03-20T02:53:58.574Z,0.09
2023-03-20T02:54:59.227Z,0.09
2023-03-20T02:56:00.110Z,0.09
2023-03-20T02:57:00.708Z,0.09
2023-03-20T02:58:01.334Z,0.09
2023-03-20T02:59:02.102Z,0.13
2023-03-20T03:00:02.697Z,0.09
2023-03-20T03:01:03.520Z,0.09
2023-03-20T03:02:04.266Z,0.09
2023-03-20T03:03:04.971Z,0.09
2023-03-20T03:03:13.538Z,0.09
2023-03-20T03:04:14.441Z,0.09
2023-03-20T03:05:15.166Z,0.09
2023-03-20T03:06:15.873Z,0.09
2023-03-20T03:07:16.565Z,0.09
2023-03-20T03:08:17.235Z,0.09
2023-03-20T03:09:17.976Z,0.09
2023-03-20T03:10:18.626Z,0.09
2023-03-20T03:11:19.320Z,0.09
2023-03-20T03:12:20.001Z,0.09
2023-03-20T03:13:20.984Z,0.09
2023-03-20T03:14:21.628Z,0.09
2023-03-20T03:14:30.230Z,0.09
2023-03-20T03:15:30.921Z,0.13
2023-03-20T03:16:31.567Z,0.09
2023-03-20T03:17:32.135Z,0.09
2023-03-20T03:18:32.792Z,0.09
2023-03-20T03:19:33.431Z,0.09
2023-03-20T03:20:34.083Z,0.09
2023-03-20T03:21:34.786Z,0.13
2023-03-20T03:22:35.435Z,0.09
2023-03-20T03:23:35.847Z,0.09
2023-03-20T03:24:42.459Z,0.09
2023-03-20T03:24:47.673Z,0.09
2023-03-20T03:26:19.296Z,0.13
2023-03-20T03:27:14.531Z,0.09
2023-03-20T03:28:15.285Z,0.09
2023-03-20T03:29:15.307Z,0.09
2023-03-20T03:30:15.877Z,0.09
2023-03-20T03:31:16.808Z,0.09
2023-03-20T03:32:16.652Z,0.09
2023-03-20T03:33:17.495Z,0.09
2023-03-20T03:34:18.125Z,0.09
2023-03-20T03:35:18.738Z,0.09
2023-03-20T03:36:19.460Z,0.09
2023-03-20T03:36:28.099Z,0.09
2023-03-20T03:37:28.774Z,0.09
2023-03-20T03:38:29.527Z,0.09
2023-03-20T03:39:30.258Z,0.09
2023-03-20T03:40:30.915Z,0.09
2023-03-20T03:41:31.649Z,0.09
2023-03-20T03:42:32.271Z,0.09
2023-03-20T03:43:32.809Z,0.09
2023-03-20T03:44:33.576Z,0.09
2023-03-20T03:45:34.477Z,0.09
2023-03-20T03:46:35.072Z,0.09
2023-03-20T03:46:45.115Z,0.09
2023-03-20T03:47:44.357Z,0.09
2023-03-20T03:48:45.150Z,0.09
2023-03-20T03:49:45.927Z,0.09
2023-03-20T03:50:46.488Z,0.09
2023-03-20T03:51:47.181Z,0.09
2023-03-20T03:52:47.896Z,0.09
2023-03-20T03:53:48.677Z,0.09
2023-03-20T03:54:49.345Z,0.09
2023-03-20T03:55:50.088Z,0.09
2023-03-20T03:56:50.911Z,0.09
2023-03-20T03:57:51.591Z,0.09
2023-03-20T03:58:00.186Z,0.09
2023-03-20T03:59:01.071Z,0.09
2023-03-20T04:00:01.746Z,0.09
2023-03-20T04:01:02.475Z,0.09
2023-03-20T04:02:03.205Z,0.09
2023-03-20T04:03:03.892Z,0.09
2023-03-20T04:04:05.036Z,0.09
2023-03-20T04:05:05.340Z,0.09
2023-03-20T04:06:06.012Z,0.09
2023-03-20T04:07:06.830Z,0.09
2023-03-20T04:08:07.483Z,0.13
2023-03-20T04:08:16.105Z,0.09
2023-03-20T04:09:16.781Z,0.09
2023-03-20T04:10:17.434Z,0.09
2023-03-20T04:11:18.041Z,0.09
2023-03-20T04:12:19.011Z,0.09
2023-03-20T04:13:19.681Z,0.09
2023-03-20T04:14:20.450Z,0.09
2023-03-20T04:15:21.343Z,0.09
2023-03-20T04:16:22.107Z,0.09
2023-03-20T04:17:22.878Z,0.09
2023-03-20T04:18:23.548Z,0.09
2023-03-20T04:18:32.171Z,0.09
2023-03-20T04:19:32.884Z,0.09
2023-03-20T04:20:33.551Z,0.09
2023-03-20T04:21:34.328Z,0.13
2023-03-20T04:22:35.466Z,0.13
2023-03-20T04:23:35.272Z,0.09
2023-03-20T04:24:35.932Z,0.09
2023-03-20T04:25:36.995Z,0.09
2023-03-20T04:26:37.702Z,0.09
2023-03-20T04:27:38.543Z,0.09
2023-03-20T04:28:39.280Z,0.09
2023-03-20T04:28:47.899Z,0.09
2023-03-20T04:29:48.609Z,0.09
2023-03-20T04:30:49.396Z,0.09
2023-03-20T04:31:50.195Z,0.09
2023-03-20T04:32:50.855Z,0.13
2023-03-20T04:33:51.486Z,0.09
2023-03-20T04:34:52.223Z,0.09
2023-03-20T04:35:52.997Z,0.09
2023-03-20T04:36:53.656Z,0.09
2023-03-20T04:37:54.344Z,0.09
2023-03-20T04:38:57.590Z,0.09
2023-03-20T04:39:56.038Z,0.09
2023-03-20T04:40:05.133Z,0.09
2023-03-20T04:41:05.824Z,0.09
2023-03-20T04:42:06.704Z,0.09
2023-03-20T04:43:07.362Z,0.09
2023-03-20T04:44:08.072Z,0.09
2023-03-20T04:45:08.870Z,0.09
2023-03-20T04:46:09.774Z,0.09
2023-03-20T04:47:09.841Z,0.09
2023-03-20T04:48:10.720Z,0.09
2023-03-20T04:49:11.470Z,0.09
2023-03-20T04:50:12.146Z,0.09
2023-03-20T04:51:12.805Z,0.13
2023-03-20T04:51:21.420Z,0.09
2023-03-20T04:52:22.447Z,0.13
2023-03-20T04:53:25.453Z,0.09
2023-03-20T04:54:24.050Z,0.13
2023-03-20T04:55:24.790Z,0.09
2023-03-20T04:56:25.558Z,0.09
2023-03-20T04:57:26.328Z,0.13
2023-03-20T04:58:27.018Z,0.09
2023-03-20T04:59:27.684Z,0.13
2023-03-20T05:00:28.558Z,0.09
2023-03-20T05:01:28.553Z,0.13
2023-03-20T05:02:29.259Z,0.09
2023-03-20T05:02:37.884Z,0.13
2023-03-20T05:03:38.543Z,0.13
2023-03-20T05:04:39.210Z,0.13
2023-03-20T05:05:39.924Z,0.13
2023-03-20T05:06:40.785Z,0.13
2023-03-20T05:07:40.934Z,0.13
2023-03-20T05:08:41.860Z,0.13
2023-03-20T05:09:42.605Z,0.13
2023-03-20T05:10:42.591Z,0.13
2023-03-20T05:11:42.673Z,0.13
2023-03-20T05:12:43.623Z,0.13
2023-03-20T05:13:44.565Z,0.13
2023-03-20T05:13:53.188Z,0.13
2023-03-20T05:14:54.074Z,0.13
2023-03-20T05:15:54.735Z,0.13
2023-03-20T05:16:55.561Z,0.13
2023-03-20T05:17:55.513Z,0.13
2023-03-20T05:18:56.365Z,0.13
2023-03-20T05:19:56.378Z,0.13
2023-03-20T05:20:57.253Z,0.13
2023-03-20T05:21:57.349Z,0.13
2023-03-20T05:22:57.370Z,0.13
2023-03-20T05:23:57.396Z,0.13
2023-03-20T05:24:57.415Z,0.13
2023-03-20T05:25:06.009Z,0.13
2023-03-20T05:26:06.791Z,0.13
2023-03-20T05:27:07.555Z,0.13
2023-03-20T05:28:08.496Z,0.13
2023-03-20T05:29:09.350Z,0.16
2023-03-20T05:30:10.227Z,0.13
2023-03-20T05:31:11.308Z,0.23
2023-03-20T05:32:12.109Z,0.23
2023-03-20T05:33:12.887Z,0.16
2023-03-20T05:34:12.886Z,0.16
2023-03-20T05:35:13.824Z,0.13
2023-03-20T05:36:13.862Z,0.16
2023-03-20T05:36:22.908Z,0.13
2023-03-20T05:37:23.547Z,0.13
2023-03-20T05:38:24.226Z,0.13
2023-03-20T05:39:24.926Z,0.13
2023-03-20T05:40:25.594Z,0.13
2023-03-20T05:41:26.333Z,0.16
2023-03-20T05:42:27.037Z,0.16
2023-03-20T05:43:27.685Z,0.16
2023-03-20T05:44:28.477Z,0.16
2023-03-20T05:45:29.210Z,0.13
2023-03-20T05:46:29.994Z,0.16
2023-03-20T05:47:30.558Z,0.16
2023-03-20T05:47:39.630Z,0.13
2023-03-20T05:48:40.275Z,0.16
2023-03-20T05:49:40.450Z,0.16
2023-03-20T05:50:41.139Z,0.16
2023-03-20T05:51:41.258Z,0.16
2023-03-20T05:52:42.045Z,0.23
2023-03-20T05:53:42.793Z,0.16
2023-03-20T05:54:43.550Z,0.16
2023-03-20T05:55:44.548Z,0.16
2023-03-20T05:56:45.369Z,0.16
2023-03-20T05:57:45.975Z,0.16
2023-03-20T05:58:46.682Z,0.16
2023-03-20T05:58:55.266Z,0.23
2023-03-20T05:59:55.951Z,0.16
2023-03-20T06:00:56.790Z,0.16
2023-03-20T06:01:57.526Z,0.23
2023-03-20T06:02:58.435Z,0.23
2023-03-20T06:03:59.185Z,0.23
2023-03-20T06:04:59.824Z,0.23
2023-03-20T06:06:00.539Z,0.23
2023-03-20T06:07:01.269Z,0.23
2023-03-20T06:08:02.082Z,0.23
2023-03-20T06:09:02.881Z,0.27
2023-03-20T06:10:03.670Z,0.27
2023-03-20T06:10:12.274Z,0.23
2023-03-20T06:11:13.178Z,0.27
2023-03-20T06:12:13.910Z,0.27
2023-03-20T06:13:14.615Z,0.27
2023-03-20T06:14:15.245Z,0.27
2023-03-20T06:15:15.879Z,0.27
2023-03-20T06:16:16.693Z,0.27
2023-03-20T06:17:17.373Z,0.31
2023-03-20T06:18:18.066Z,0.31
2023-03-20T06:19:18.733Z,0.31
2023-03-20T06:20:19.491Z,0.31
2023-03-20T06:20:28.607Z,0.31
2023-03-20T06:21:29.578Z,0.31
2023-03-20T06:22:29.631Z,0.31
2023-03-20T06:23:30.320Z,0.31
2023-03-20T06:24:30.978Z,0.34
2023-03-20T06:25:31.764Z,0.34
2023-03-20T06:26:32.421Z,0.31
2023-03-20T06:27:33.187Z,0.34
2023-03-20T06:28:33.899Z,0.34
2023-03-20T06:29:34.686Z,0.34
2023-03-20T06:30:34.808Z,0.34
2023-03-20T06:31:35.724Z,0.34
2023-03-20T06:31:44.732Z,0.34
2023-03-20T06:32:45.553Z,0.34
2023-03-20T06:33:46.210Z,0.38
2023-03-20T06:34:46.895Z,0.34
2023-03-20T06:35:47.777Z,0.34
2023-03-20T06:36:48.399Z,0.34
2023-03-20T06:37:49.058Z,0.34
2023-03-20T06:38:49.712Z,0.34
2023-03-20T06:39:50.497Z,0.38
2023-03-20T06:40:51.340Z,0.38
2023-03-20T06:41:52.096Z,0.38
2023-03-20T06:42:52.906Z,0.38
2023-03-20T06:43:01.542Z,0.34
2023-03-20T06:44:02.516Z,0.34
2023-03-20T06:45:02.965Z,0.38
2023-03-20T06:46:03.094Z,0.34
2023-03-20T06:47:04.801Z,0.34
2023-03-20T06:48:04.590Z,0.34
2023-03-20T06:49:05.491Z,0.34
2023-03-20T06:50:06.376Z,0.38
2023-03-20T06:51:07.077Z,0.38
2023-03-20T06:52:08.085Z,0.34
2023-03-20T06:53:08.895Z,0.38
2023-03-20T06:53:17.563Z,0.34
2023-03-20T06:54:18.363Z,0.38
2023-03-20T06:55:19.070Z,0.34
2023-03-20T06:56:19.827Z,0.38
2023-03-20T06:57:20.510Z,0.38
2023-03-20T06:58:21.377Z,0.38
2023-03-20T06:59:22.171Z,0.34
2023-03-20T07:00:22.836Z,0.38
2023-03-20T07:01:23.697Z,0.38
2023-03-20T07:02:23.672Z,0.34
2023-03-20T07:03:24.496Z,0.34
2023-03-20T07:04:25.167Z,0.34
2023-03-20T07:04:34.388Z,0.34
2023-03-20T07:05:35.415Z,0.34
2023-03-20T07:06:35.853Z,0.34
2023-03-20T07:07:36.515Z,0.31
2023-03-20T07:08:37.371Z,0.31
2023-03-20T07:09:38.061Z,0.31
2023-03-20T07:10:38.721Z,0.31
2023-03-20T07:11:39.495Z,0.27
2023-03-20T07:12:40.242Z,0.31
2023-03-20T07:13:41.042Z,0.31
2023-03-20T07:14:41.939Z,0.31
2023-03-20T07:14:51.105Z,0.31
2023-03-20T07:16:03.646Z,0.34
2023-03-20T07:16:52.884Z,0.34
2023-03-20T07:17:53.626Z,0.34
2023-03-20T07:18:54.378Z,0.34
2023-03-20T07:19:54.990Z,0.31
2023-03-20T07:20:55.696Z,0.31
2023-03-20T07:21:56.445Z,0.34
2023-03-20T07:22:57.179Z,0.38
2023-03-20T07:23:57.907Z,0.41
2023-03-20T07:24:58.585Z,0.41
2023-03-20T07:25:07.213Z,0.41
2023-03-20T07:26:07.974Z,0.41
2023-03-20T07:27:08.668Z,0.45
2023-03-20T07:28:09.478Z,0.45
2023-03-20T07:29:10.348Z,0.45
2023-03-20T07:30:11.084Z,0.45
2023-03-20T07:31:11.922Z,0.45
2023-03-20T07:32:12.498Z,0.48
2023-03-20T07:33:13.457Z,0.48
2023-03-20T07:34:14.214Z,0.48
2023-03-20T07:35:15.133Z,0.55
2023-03-20T07:36:16.061Z,0.59
2023-03-20T07:36:24.683Z,0.55
2023-03-20T07:37:25.307Z,0.55
2023-03-20T07:38:26.131Z,0.55
2023-03-20T07:39:26.771Z,0.52
2023-03-20T07:40:27.592Z,0.52
2023-03-20T07:41:28.469Z,0.52
2023-03-20T07:42:29.144Z,0.48
2023-03-20T07:43:29.939Z,0.45
2023-03-20T07:44:30.655Z,0.45
2023-03-20T07:45:31.520Z,0.45
2023-03-20T07:46:32.146Z,0.41
2023-03-20T07:46:40.802Z,0.41
2023-03-20T07:47:41.500Z,0.41
2023-03-20T07:48:42.154Z,0.38
2023-03-20T07:49:42.941Z,0.38
2023-03-20T07:50:43.667Z,0.38
2023-03-20T07:51:44.409Z,0.41
2023-03-20T07:52:45.094Z,0.41
2023-03-20T07:53:45.927Z,0.45
2023-03-20T07:54:46.599Z,0.41
2023-03-20T07:55:47.357Z,0.38
2023-03-20T07:56:48.160Z,0.38
2023-03-20T07:56:56.809Z,0.34
2023-03-20T07:57:57.555Z,0.38
2023-03-20T07:58:58.407Z,0.41
2023-03-20T07:59:59.196Z,0.41
2023-03-20T08:00:59.333Z,0.41
2023-03-20T08:01:59.406Z,0.41
2023-03-20T08:03:00.350Z,0.41
2023-03-20T08:04:01.268Z,0.45
2023-03-20T08:05:02.037Z,0.45
2023-03-20T08:06:02.857Z,0.45
2023-03-20T08:07:03.705Z,0.45
2023-03-20T08:07:12.362Z,0.45
2023-03-20T08:08:13.086Z,0.41
2023-03-20T08:09:13.950Z,0.41
2023-03-20T08:10:14.685Z,0.41
2023-03-20T08:11:15.422Z,0.41
2023-03-20T08:12:16.318Z,0.41
2023-03-20T08:13:17.020Z,0.52
2023-03-20T08:14:17.767Z,0.45
2023-03-20T08:15:18.444Z,0.48
2023-03-20T08:16:19.274Z,0.52
2023-03-20T08:17:21.725Z,0.48
2023-03-20T08:17:29.167Z,0.48
2023-03-20T08:18:29.896Z,0.45
2023-03-20T08:19:29.968Z,0.41
2023-03-20T08:20:30.754Z,0.45
2023-03-20T08:21:31.656Z,0.59
2023-03-20T08:22:32.481Z,0.48
2023-03-20T08:23:33.257Z,0.48
2023-03-20T08:24:34.034Z,0.66
2023-03-20T08:25:35.295Z,0.59
2023-03-20T08:26:35.585Z,0.59
2023-03-20T08:27:36.394Z,0.48
2023-03-20T08:27:46.084Z,0.41
2023-03-20T08:28:48.435Z,0.41
2023-03-20T08:29:47.419Z,0.45
2023-03-20T08:30:48.261Z,0.45
2023-03-20T08:31:49.095Z,0.55
2023-03-20T08:32:49.927Z,0.59
2023-03-20T08:33:50.763Z,0.70
2023-03-20T08:34:51.559Z,0.70
2023-03-20T08:35:52.423Z,0.77
2023-03-20T08:36:53.317Z,0.80
2023-03-20T08:37:54.202Z,0.84
2023-03-20T08:38:55.105Z,0.91
2023-03-20T08:39:55.841Z,0.88
2023-03-20T08:40:05.400Z,0.91
2023-03-20T08:41:06.142Z,0.88
2023-03-20T08:42:07.057Z,0.88
2023-03-20T08:43:07.724Z,0.91
2023-03-20T08:44:08.444Z,0.91
2023-03-20T08:45:09.234Z,0.91
2023-03-20T08:46:10.067Z,0.91
2023-03-20T08:47:10.795Z,0.91
2023-03-20T08:48:11.518Z,0.88
2023-03-20T08:49:12.361Z,0.91
2023-03-20T08:50:13.112Z,0.95
2023-03-20T08:51:14.053Z,1.02
2023-03-20T08:51:22.648Z,1.02
2023-03-20T08:52:22.721Z,1.02
2023-03-20T08:53:23.432Z,1.02
2023-03-20T08:54:24.295Z,0.98
2023-03-20T08:55:25.082Z,0.98
2023-03-20T08:56:25.982Z,0.95
2023-03-20T08:57:26.648Z,0.80
2023-03-20T08:58:27.515Z,0.91
2023-03-20T08:59:28.419Z,0.98
2023-03-20T09:00:28.660Z,0.95
2023-03-20T09:01:46.018Z,0.84
2023-03-20T09:01:49.132Z,0.88
2023-03-20T09:02:38.994Z,0.88
2023-03-20T09:03:39.358Z,0.84
2023-03-20T09:04:40.030Z,0.84
2023-03-20T09:05:40.821Z,0.80
2023-03-20T09:06:41.632Z,0.80
2023-03-20T09:07:42.480Z,0.84
2023-03-20T09:08:44.328Z,0.84
2023-03-20T09:09:43.715Z,0.88
2023-03-20T09:10:44.500Z,0.88
2023-03-20T09:11:44.675Z,0.84
2023-03-20T09:11:53.289Z,0.84
2023-03-20T09:12:53.465Z,0.84
2023-03-20T09:13:53.479Z,0.80
2023-03-20T09:14:54.269Z,0.77
2023-03-20T09:15:55.089Z,0.77
2023-03-20T09:16:55.303Z,0.77
2023-03-20T09:17:56.065Z,0.73
2023-03-20T09:18:56.812Z,0.73
2023-03-20T09:19:57.534Z,0.73
2023-03-20T09:20:58.292Z,0.70
2023-03-20T09:21:59.122Z,0.73
2023-03-20T09:22:59.294Z,0.73
2023-03-20T09:23:08.927Z,0.73
2023-03-20T09:24:09.228Z,0.73
2023-03-20T09:25:09.963Z,0.73
2023-03-20T09:26:10.775Z,0.73
2023-03-20T09:27:11.547Z,0.77
2023-03-20T09:28:12.295Z,0.73
2023-03-20T09:29:13.176Z,0.73
2023-03-20T09:30:14.074Z,0.73
2023-03-20T09:31:14.843Z,0.73
2023-03-20T09:32:15.523Z,0.73
2023-03-20T09:33:16.326Z,0.77
2023-03-20T09:33:24.934Z,0.77
2023-03-20T09:34:25.646Z,0.77
2023-03-20T09:35:26.660Z,0.77
2023-03-20T09:36:26.752Z,0.80
2023-03-20T09:37:28.667Z,0.77
2023-03-20T09:38:28.402Z,0.80
2023-03-20T09:39:29.094Z,0.80
2023-03-20T09:40:29.807Z,0.80
2023-03-20T09:41:30.566Z,0.84
2023-03-20T09:42:31.364Z,0.84
2023-03-20T09:43:32.111Z,0.84
2023-03-20T09:44:32.786Z,0.84
2023-03-20T09:44:41.401Z,0.84
2023-03-20T09:45:42.145Z,0.80
2023-03-20T09:46:42.328Z,0.80
2023-03-20T09:47:42.302Z,0.84
2023-03-20T09:48:43.036Z,0.84
2023-03-20T09:49:43.849Z,0.80
2023-03-20T09:50:44.580Z,0.80
2023-03-20T09:51:45.401Z,0.80
2023-03-20T09:52:46.232Z,0.80
2023-03-20T09:53:46.875Z,0.80
2023-03-20T09:54:54.496Z,0.80
2023-03-20T09:55:48.293Z,0.84
2023-03-20T09:55:56.909Z,0.84
2023-03-20T09:56:57.656Z,0.84
2023-03-20T09:57:58.463Z,0.84
2023-03-20T09:58:59.124Z,0.88
2023-03-20T10:00:00.019Z,0.91
2023-03-20T10:01:00.677Z,0.91
2023-03-20T10:02:01.386Z,0.95
2023-03-20T10:03:02.242Z,0.95
2023-03-20T10:04:03.118Z,0.95
2023-03-20T10:05:03.838Z,0.95
2023-03-20T10:06:04.699Z,0.98
2023-03-20T10:06:13.308Z,0.95
2023-03-20T10:07:14.127Z,0.98
2023-03-20T10:08:16.224Z,1.02
2023-03-20T10:09:15.651Z,1.02
2023-03-20T10:10:16.340Z,1.02
2023-03-20T10:11:17.173Z,1.09
2023-03-20T10:12:17.864Z,1.02
2023-03-20T10:13:18.718Z,1.02
2023-03-20T10:14:19.442Z,1.02
2023-03-20T10:15:20.306Z,1.02
2023-03-20T10:16:21.185Z,1.12
2023-03-20T10:17:21.776Z,1.12
2023-03-20T10:17:30.893Z,1.12
2023-03-20T10:18:31.718Z,1.12
2023-03-20T10:19:32.558Z,1.20
2023-03-20T10:20:33.302Z,1.16
2023-03-20T10:21:34.004Z,1.16
2023-03-20T10:22:34.829Z,1.27
2023-03-20T10:23:35.676Z,1.02
2023-03-20T10:24:36.454Z,1.16
2023-03-20T10:25:37.161Z,1.27
2023-03-20T10:26:38.012Z,1.16
2023-03-20T10:27:38.763Z,1.23
2023-03-20T10:28:39.584Z,1.02
2023-03-20T10:28:48.583Z,1.02
2023-03-20T10:29:48.753Z,1.44
2023-03-20T10:30:49.050Z,1.34
2023-03-20T10:31:49.897Z,1.34
2023-03-20T10:32:50.739Z,1.20
2023-03-20T10:33:51.524Z,1.16
2023-03-20T10:34:52.208Z,1.41
2023-03-20T10:35:53.101Z,1.34
2023-03-20T10:36:53.870Z,1.12
2023-03-20T10:37:54.570Z,1.27
2023-03-20T10:38:55.580Z,1.16
2023-03-20T10:39:06.703Z,1.16
2023-03-20T10:40:05.771Z,1.12
2023-03-20T10:41:06.665Z,1.12
2023-03-20T10:42:07.500Z,1.16
2023-03-20T10:43:08.235Z,1.12
2023-03-20T10:44:09.177Z,1.09
2023-03-20T10:45:09.864Z,1.02
2023-03-20T10:46:10.615Z,0.98
2023-03-20T10:47:11.498Z,0.95
2023-03-20T10:48:12.047Z,0.91
2023-03-20T10:49:12.834Z,0.95
2023-03-20T10:49:21.459Z,0.84
2023-03-20T10:50:21.584Z,0.88
2023-03-20T10:51:22.405Z,0.84
2023-03-20T10:52:22.376Z,0.84
2023-03-20T10:53:23.115Z,0.84
2023-03-20T10:54:24.054Z,0.88
2023-03-20T10:55:24.710Z,0.91
2023-03-20T10:56:25.701Z,0.91
2023-03-20T10:57:26.424Z,0.91
2023-03-20T10:58:27.231Z,0.91
2023-03-20T10:59:28.198Z,0.91
2023-03-20T10:59:36.791Z,0.95
2023-03-20T11:00:37.313Z,0.95
2023-03-20T11:01:37.657Z,0.98
2023-03-20T11:02:38.478Z,0.98
2023-03-20T11:03:40.211Z,0.95
2023-03-20T11:04:40.104Z,0.91
2023-03-20T11:05:40.879Z,0.84
2023-03-20T11:06:41.671Z,0.80
2023-03-20T11:07:42.623Z,0.70
2023-03-20T11:08:43.486Z,0.77
2023-03-20T11:09:44.305Z,0.73
2023-03-20T11:10:44.439Z,0.73
2023-03-20T11:10:53.525Z,0.73
2023-03-20T11:11:54.524Z,0.73
2023-03-20T11:12:55.271Z,0.73
2023-03-20T11:13:56.086Z,0.70
2023-03-20T11:14:56.988Z,0.70
2023-03-20T11:15:58.834Z,0.70
2023-03-20T11:16:58.677Z,0.70
2023-03-20T11:17:59.296Z,0.70
2023-03-20T11:18:59.971Z,0.70
2023-03-20T11:20:00.800Z,0.70
2023-03-20T11:21:01.393Z,0.70
2023-03-20T11:22:02.078Z,0.73
2023-03-20T11:22:11.429Z,0.70
2023-03-20T11:23:12.102Z,0.70
2023-03-20T11:24:12.872Z,0.73
2023-03-20T11:25:13.531Z,0.70
2023-03-20T11:26:14.262Z,0.73
2023-03-20T11:27:15.052Z,0.73
2023-03-20T11:28:15.684Z,0.70
2023-03-20T11:29:16.632Z,0.73
2023-03-20T11:30:17.752Z,0.73
2023-03-20T11:31:18.315Z,0.73
2023-03-20T11:32:18.630Z,0.77
2023-03-20T11:33:19.466Z,0.77
2023-03-20T11:33:28.014Z,0.73
2023-03-20T11:34:28.627Z,0.77
2023-03-20T11:35:29.389Z,0.77
2023-03-20T11:36:30.307Z,0.77
2023-03-20T11:37:30.828Z,0.77
2023-03-20T11:38:31.524Z,0.77
2023-03-20T11:39:32.329Z,0.77
2023-03-20T11:40:33.255Z,0.80
2023-03-20T11:41:33.920Z,0.80
2023-03-20T11:42:34.866Z,0.80
2023-03-20T11:43:35.650Z,0.80
2023-03-20T11:43:44.317Z,0.80
2023-03-20T11:44:45.036Z,0.80
2023-03-20T11:45:45.126Z,0.80
2023-03-20T11:46:45.725Z,0.80
2023-03-20T11:47:46.482Z,0.77
2023-03-20T11:48:46.578Z,0.84
2023-03-20T11:49:47.523Z,0.77
2023-03-20T11:50:48.352Z,0.77
2023-03-20T11:51:49.243Z,0.77
2023-03-20T11:52:49.983Z,0.77
2023-03-20T11:53:50.835Z,0.77
2023-03-20T11:54:51.560Z,0.80
2023-03-20T11:55:00.166Z,0.80
2023-03-20T11:56:00.927Z,0.84
2023-03-20T11:57:01.710Z,0.84
2023-03-20T11:58:02.685Z,0.80
2023-03-20T11:59:03.498Z,0.80
2023-03-20T12:00:04.404Z,0.84
2023-03-20T12:01:05.995Z,0.84
2023-03-20T12:02:05.954Z,0.84
2023-03-20T12:03:06.820Z,0.84
2023-03-20T12:04:06.795Z,0.84
2023-03-20T12:05:06.925Z,0.84
2023-03-20T12:05:16.888Z,0.80
2023-03-20T12:06:15.737Z,0.84
2023-03-20T12:07:16.528Z,0.80
2023-03-20T12:08:17.413Z,0.84
2023-03-20T12:09:18.277Z,0.84
2023-03-20T12:10:19.040Z,0.84
2023-03-20T12:11:19.864Z,0.80
2023-03-20T12:12:20.556Z,0.84
2023-03-20T12:13:21.234Z,0.80
2023-03-20T12:14:21.386Z,0.80
2023-03-20T12:15:21.727Z,0.77
2023-03-20T12:15:30.405Z,0.77
2023-03-20T12:16:31.229Z,0.77
2023-03-20T12:17:31.448Z,0.73
2023-03-20T12:18:32.285Z,0.70
2023-03-20T12:19:33.244Z,0.70
2023-03-20T12:20:34.158Z,0.70
2023-03-20T12:21:34.841Z,0.73
2023-03-20T12:22:35.522Z,0.73
2023-03-20T12:23:36.382Z,0.73
2023-03-20T12:24:37.191Z,0.73
2023-03-20T12:25:38.073Z,0.70
2023-03-20T12:26:38.257Z,0.70
2023-03-20T12:26:46.775Z,0.70
2023-03-20T12:27:47.499Z,0.70
2023-03-20T12:28:48.241Z,0.66